Time;durP1;ratioP1;P1;durP2;ratioP2;P2;SDS_P1;SDS_P2;PMS_P1;PMS_P2;Temp;Humidity;BMP_temperature;BMP_pressure;BME280_temperature;BME280_humidity;BME280_pressure;Samples;Min_cycle;Max_cycle;Signal;HPM_P1;HPM_P2
2020/02/19 00:00:43;;;;;;;8.9;4.9;;;;;;;5.09;65.12402;965.478;;;;
2020/02/19 00:03:02;;;;;;;6;2.6;;;;;;;5.11;64.97852;965.3761;;;;
2020/02/19 00:05:27;;;;;;;6.4;3;;;;;;;5.15;64.79199;965.3097;;;;
2020/02/19 00:07:52;;;;;;;7.1;3.4;;;;;;;5.13;65.02832;965.2989;;;;
2020/02/19 00:10:17;;;;;;;4.4;1.6;;;;;;;5.1;65.0332;965.3222;;;;
2020/02/19 00:12:42;;;;;;;6.1;2.2;;;;;;;5.15;64.81348;965.2684;;;;
2020/02/19 00:15:07;;;;;;;6.8;2.1;;;;;;;5.14;64.45996;965.2333;;;;
2020/02/19 00:17:32;;;;;;;7;2.4;;;;;;;5.2;64.52637;965.2148;;;;
2020/02/19 00:19:57;;;;;;;8.4;3;;;;;;;5.19;64.51367;965.1359;;;;
2020/02/19 00:22:22;;;;;;;4;1.6;;;;;;;5.29;64.24414;965.1223;;;;
2020/02/19 00:24:48;;;;;;;5.8;3;;;;;;;5.17;64.4873;965.0559;;;;
2020/02/19 00:27:13;;;;;;;5.6;2.3;;;;;;;5.2;64.49219;965.059;;;;
2020/02/19 00:29:38;;;;;;;5.3;2;;;;;;;5.26;64.125;965.0084;;;;
2020/02/19 00:32:03;;;;;;;4.6;2.2;;;;;;;5.25;64.29395;964.9783;;;;
2020/02/19 00:34:28;;;;;;;5;2;;;;;;;5.18;63.68164;964.9529;;;;
2020/02/19 00:36:53;;;;;;;6.5;3.4;;;;;;;5.27;63.54785;964.8967;;;;
2020/02/19 00:39:18;;;;;;;6.4;2.2;;;;;;;5.32;63.72656;964.9088;;;;
2020/02/19 00:41:43;;;;;;;5.9;2.2;;;;;;;5.28;63.44727;964.843;;;;
2020/02/19 00:44:08;;;;;;;4;1.4;;;;;;;5.32;62.91797;964.7858;;;;
2020/02/19 00:46:33;;;;;;;6.5;3.4;;;;;;;5.33;63.39844;964.7964;;;;
2020/02/19 00:48:59;;;;;;;4.5;1.6;;;;;;;5.32;63.63574;964.7537;;;;
2020/02/19 00:51:24;;;;;;;4.5;1.5;;;;;;;5.28;63.38867;964.6909;;;;
2020/02/19 00:53:49;;;;;;;4.8;1.4;;;;;;;5.28;63.30957;964.6829;;;;
2020/02/19 00:56:14;;;;;;;3.9;1.5;;;;;;;5.35;63.72949;964.5811;;;;
2020/02/19 00:58:39;;;;;;;3.1;1.3;;;;;;;5.37;63.11914;964.5443;;;;
2020/02/19 01:01:04;;;;;;;5.6;1.5;;;;;;;5.31;63.75781;964.5287;;;;
2020/02/19 01:03:29;;;;;;;4.4;1.4;;;;;;;5.42;63.16016;964.4716;;;;
2020/02/19 01:05:54;;;;;;;4.4;1.6;;;;;;;5.3;63.74512;964.4238;;;;
2020/02/19 01:08:19;;;;;;;5.2;1.6;;;;;;;5.28;63.78711;964.3792;;;;
2020/02/19 01:10:44;;;;;;;5.1;1.5;;;;;;;5.34;64.27539;964.3055;;;;
2020/02/19 01:13:10;;;;;;;4.6;1.6;;;;;;;5.33;64.27246;964.346;;;;
2020/02/19 01:15:35;;;;;;;5.4;1.7;;;;;;;5.29;66.25684;964.2933;;;;
2020/02/19 01:18:00;;;;;;;5.4;1.6;;;;;;;5.37;67.04199;964.2875;;;;
2020/02/19 01:20:25;;;;;;;5.2;1.6;;;;;;;5.21;67.34668;964.2;;;;
2020/02/19 01:22:50;;;;;;;7.1;1.8;;;;;;;5.09;67.43066;964.1791;;;;
2020/02/19 01:25:15;;;;;;;4.3;1.4;;;;;;;5.2;68.26465;964.1855;;;;
2020/02/19 01:27:41;;;;;;;5;1.6;;;;;;;4.91;68.46875;964.1817;;;;
2020/02/19 01:30:06;;;;;;;4.3;1.5;;;;;;;4.82;68.9668;964.1209;;;;
2020/02/19 01:32:32;;;;;;;4;1.3;;;;;;;4.93;69.24512;964.0927;;;;
2020/02/19 01:34:57;;;;;;;5.1;1.4;;;;;;;4.97;69.22852;964.0958;;;;
2020/02/19 01:37:22;;;;;;;6.6;1.7;;;;;;;4.83;68.88672;964.0679;;;;
2020/02/19 01:39:47;;;;;;;4.4;1.5;;;;;;;4.74;69.13379;963.9981;;;;
2020/02/19 01:42:13;;;;;;;4.7;1.6;;;;;;;4.91;68.53711;964.0064;;;;
2020/02/19 01:44:38;;;;;;;5.1;1.6;;;;;;;5.06;66.62988;963.9668;;;;
2020/02/19 01:47:03;;;;;;;4.1;1.6;;;;;;;5.13;65.59668;963.9467;;;;
2020/02/19 01:49:28;;;;;;;4.6;1.3;;;;;;;5.22;65.55176;963.9063;;;;
2020/02/19 01:51:53;;;;;;;5.5;1.4;;;;;;;5.18;64.38574;963.8809;;;;
2020/02/19 01:54:19;;;;;;;4.9;1.6;;;;;;;5.2;64.13965;963.8326;;;;
2020/02/19 01:56:44;;;;;;;3.7;1.2;;;;;;;5.28;63.93555;963.7985;;;;
2020/02/19 02:01:38;;;;;;;4.3;1.4;;;;;;;5.29;63.9248;963.7024;;;;
2020/02/19 02:04:06;;;;;;;5.4;1.5;;;;;;;5.26;63.94434;963.6467;;;;
2020/02/19 02:06:35;;;;;;;4;1.3;;;;;;;5.18;64.13574;963.6273;;;;
2020/02/19 02:08:50;;;;;;;6.3;1.4;;;;;;;5.18;63.7041;963.6347;;;;
2020/02/19 02:11:16;;;;;;;5.2;1.3;;;;;;;5.29;63.45996;963.6418;;;;
2020/02/19 02:13:41;;;;;;;3.6;1.1;;;;;;;5.21;63.82324;963.5246;;;;
2020/02/19 02:16:06;;;;;;;4.1;1.2;;;;;;;5.26;64.0459;963.4418;;;;
2020/02/19 02:18:31;;;;;;;4.3;1.2;;;;;;;5.28;63.26563;963.4688;;;;
2020/02/19 02:20:56;;;;;;;5.8;1.7;;;;;;;5.24;63.73633;963.4146;;;;
2020/02/19 02:23:21;;;;;;;5;1.4;;;;;;;5.32;63.64551;963.4033;;;;
2020/02/19 02:25:47;;;;;;;4.2;1.1;;;;;;;5.33;63.54492;963.3555;;;;
2020/02/19 02:28:12;;;;;;;4.4;1.4;;;;;;;5.47;63.48828;963.2877;;;;
2020/02/19 02:30:37;;;;;;;3.9;1.3;;;;;;;5.35;63.55859;963.3206;;;;
2020/02/19 02:33:03;;;;;;;4.9;1.6;;;;;;;5.37;63.89258;963.2063;;;;
2020/02/19 02:35:28;;;;;;;4.1;1.2;;;;;;;5.46;63.51758;963.1552;;;;
2020/02/19 02:37:54;;;;;;;5.9;1.4;;;;;;;5.45;63.41602;963.1614;;;;
2020/02/19 02:40:19;;;;;;;5;1.3;;;;;;;5.45;63.35742;963.1014;;;;
2020/02/19 02:42:44;;;;;;;5.9;1.3;;;;;;;5.4;63.54395;963.0652;;;;
2020/02/19 02:45:09;;;;;;;5.1;1.4;;;;;;;5.42;63.58105;962.9813;;;;
2020/02/19 02:47:35;;;;;;;3.4;1.4;;;;;;;5.4;63.89648;962.9246;;;;
2020/02/19 02:50:00;;;;;;;4.5;1.4;;;;;;;5.39;63.90625;962.8403;;;;
2020/02/19 02:52:26;;;;;;;3.7;1.1;;;;;;;5.39;63.88379;962.867;;;;
2020/02/19 02:54:51;;;;;;;4.5;1.1;;;;;;;5.38;64.05273;962.813;;;;
2020/02/19 02:57:16;;;;;;;4.8;1.4;;;;;;;5.47;63.86035;962.8192;;;;
2020/02/19 02:59:41;;;;;;;4.9;1.3;;;;;;;5.47;64.34961;962.7935;;;;
2020/02/19 03:02:06;;;;;;;3.7;1.1;;;;;;;5.53;64.41699;962.7863;;;;
2020/02/19 03:04:31;;;;;;;4.4;1.2;;;;;;;5.55;64.2041;962.8546;;;;
2020/02/19 03:06:56;;;;;;;4.1;1.2;;;;;;;5.51;63.54883;962.7009;;;;
2020/02/19 03:09:21;;;;;;;5.1;1.4;;;;;;;5.53;63.41602;962.6911;;;;
2020/02/19 03:11:46;;;;;;;3.3;1.2;;;;;;;5.53;63.23242;962.6755;;;;
2020/02/19 03:14:11;;;;;;;4.7;1.3;;;;;;;5.56;63.35156;962.5686;;;;
2020/02/19 03:16:36;;;;;;;3.6;1;;;;;;;5.63;63.49902;962.512;;;;
2020/02/19 03:19:02;;;;;;;4.2;1.2;;;;;;;5.64;62.56641;962.4751;;;;
2020/02/19 03:21:27;;;;;;;4.7;1.4;;;;;;;5.57;62.11426;962.457;;;;
2020/02/19 03:23:52;;;;;;;3.8;1.1;;;;;;;5.61;62.38184;962.5031;;;;
2020/02/19 03:26:17;;;;;;;4;1.3;;;;;;;5.61;61.25488;962.4755;;;;
2020/02/19 03:28:42;;;;;;;4.7;1.2;;;;;;;5.68;61.35547;962.437;;;;
2020/02/19 03:33:36;;;;;;;6.4;1.4;;;;;;;5.72;60.4502;962.4026;;;;
2020/02/19 03:35:57;;;;;;;5.3;1.4;;;;;;;5.75;60.3877;962.4203;;;;
2020/02/19 03:38:23;;;;;;;4.8;1.1;;;;;;;5.85;59.58105;962.416;;;;
2020/02/19 03:40:48;;;;;;;3.9;1.2;;;;;;;5.79;59.84668;962.3579;;;;
2020/02/19 03:43:14;;;;;;;3.8;1.2;;;;;;;5.76;59.38672;962.3345;;;;
2020/02/19 03:45:39;;;;;;;4.2;1.3;;;;;;;5.74;59.27051;962.2481;;;;
2020/02/19 03:48:04;;;;;;;3.8;1.1;;;;;;;5.73;59.45215;962.3158;;;;
2020/02/19 03:50:29;;;;;;;4.8;1.3;;;;;;;5.77;59.33105;962.2953;;;;
2020/02/19 03:52:54;;;;;;;4.5;1.2;;;;;;;5.76;59.71777;962.3049;;;;
2020/02/19 03:55:19;;;;;;;4.7;1.6;;;;;;;5.76;59.6377;962.3;;;;
2020/02/19 03:57:44;;;;;;;4.5;1.3;;;;;;;5.8;59.5625;962.2408;;;;
2020/02/19 04:02:28;;;;;;;3.3;1;;;;;;;5.75;59.5332;962.1912;;;;
2020/02/19 04:04:53;;;;;;;4.8;1.6;;;;;;;5.79;59.70898;962.1191;;;;
2020/02/19 04:07:18;;;;;;;3.6;1.1;;;;;;;5.83;60.02344;962.0413;;;;
2020/02/19 04:09:43;;;;;;;4.6;0.9;;;;;;;5.85;59.88867;962.0692;;;;
2020/02/19 04:12:09;;;;;;;3.1;1.1;;;;;;;5.79;60.0498;961.9881;;;;
2020/02/19 04:14:34;;;;;;;3.9;1.2;;;;;;;5.77;59.94531;961.9194;;;;
2020/02/19 04:16:59;;;;;;;4.6;1.4;;;;;;;5.81;59.81641;961.9092;;;;
2020/02/19 04:19:24;;;;;;;4.3;1.2;;;;;;;5.9;59.22363;961.8124;;;;
2020/02/19 04:21:49;;;;;;;4.7;1.1;;;;;;;5.8;59.45996;961.801;;;;
2020/02/19 04:24:14;;;;;;;3.6;1.1;;;;;;;5.81;59.03125;961.6425;;;;
2020/02/19 04:26:39;;;;;;;2.9;0.9;;;;;;;5.85;59.28516;961.634;;;;
2020/02/19 04:29:04;;;;;;;6;1.3;;;;;;;5.82;58.92871;961.5958;;;;
2020/02/19 04:31:29;;;;;;;3.5;1.2;;;;;;;5.86;58.44336;961.6335;;;;
2020/02/19 04:33:54;;;;;;;3.7;1.2;;;;;;;5.83;58.65723;961.522;;;;
2020/02/19 04:36:19;;;;;;;3.7;1;;;;;;;5.86;58.55762;961.5792;;;;
2020/02/19 04:38:44;;;;;;;5.2;1.3;;;;;;;5.9;58.46094;961.4285;;;;
2020/02/19 04:41:09;;;;;;;4.9;1.1;;;;;;;5.8;58.66406;961.2787;;;;
2020/02/19 04:43:35;;;;;;;3.8;1.1;;;;;;;5.82;58.81445;961.4033;;;;
2020/02/19 04:46:00;;;;;;;4.4;1.1;;;;;;;5.85;58.7959;961.3956;;;;
2020/02/19 04:48:25;;;;;;;3.3;1;;;;;;;5.86;59.07129;961.296;;;;
2020/02/19 04:50:52;;;;;;;3.7;1;;;;;;;5.82;58.84863;961.3985;;;;
2020/02/19 04:53:17;;;;;;;2.9;0.9;;;;;;;5.8;58.75488;961.3203;;;;
2020/02/19 04:55:42;;;;;;;4.1;1.4;;;;;;;5.82;58.41602;961.2667;;;;
2020/02/19 04:58:07;;;;;;;3.3;1.3;;;;;;;5.77;59.29688;961.3219;;;;
2020/02/19 05:00:32;;;;;;;3.6;1.2;;;;;;;5.75;59.7041;961.3642;;;;
2020/02/19 05:07:49;;;;;;;4.3;1.2;;;;;;;5.75;59.2373;961.2519;;;;
2020/02/19 05:10:13;;;;;;;4.6;1.5;;;;;;;5.74;59.45215;961.1266;;;;
2020/02/19 05:12:38;;;;;;;3.7;1.5;;;;;;;5.78;58.95801;961.2037;;;;
2020/02/19 05:15:03;;;;;;;3.8;1.1;;;;;;;5.8;59.35742;961.1792;;;;
2020/02/19 05:17:28;;;;;;;3;1.1;;;;;;;5.79;59.18652;961.1564;;;;
2020/02/19 05:19:53;;;;;;;3.6;1.3;;;;;;;5.75;59.29395;961.1144;;;;
2020/02/19 05:22:18;;;;;;;3.7;1.3;;;;;;;5.76;59.5;961.1331;;;;
2020/02/19 05:24:43;;;;;;;3;1.2;;;;;;;5.78;59.36621;961.1696;;;;
2020/02/19 05:27:08;;;;;;;4.4;1.3;;;;;;;5.8;59.50488;961.1799;;;;
2020/02/19 05:29:33;;;;;;;3;1.1;;;;;;;5.81;59.62012;961.1983;;;;
2020/02/19 05:31:59;;;;;;;3.2;1.2;;;;;;;5.79;59.77832;961.116;;;;
2020/02/19 05:34:24;;;;;;;3.3;1.3;;;;;;;5.77;60.00195;961.0745;;;;
2020/02/19 05:36:49;;;;;;;4.3;1.4;;;;;;;5.79;60.24414;961.0131;;;;
2020/02/19 05:39:15;;;;;;;4.4;1.2;;;;;;;5.77;60.27637;961.007;;;;
2020/02/19 05:41:40;;;;;;;3.8;1.1;;;;;;;5.79;60.43848;961.0705;;;;
2020/02/19 05:44:06;;;;;;;3.8;1.2;;;;;;;5.8;60.89355;960.9722;;;;
2020/02/19 05:46:31;;;;;;;3.6;1.3;;;;;;;5.78;61.54004;961.0273;;;;
2020/02/19 05:48:57;;;;;;;3.6;1.1;;;;;;;5.84;62.3125;960.9175;;;;
2020/02/19 05:51:21;;;;;;;4.5;1.2;;;;;;;5.77;62.88184;960.9604;;;;
2020/02/19 05:53:47;;;;;;;4.6;1.4;;;;;;;5.67;65.79004;961.0834;;;;
2020/02/19 05:56:12;;;;;;;3.5;0.9;;;;;;;5.55;67.85547;960.8928;;;;
2020/02/19 05:58:37;;;;;;;3.4;1.1;;;;;;;5.52;69.29395;960.8463;;;;
2020/02/19 06:01:41;;;;;;;3.2;1.1;;;;;;;5.4;69.69629;960.9359;;;;
2020/02/19 06:03:52;;;;;;;4.1;1.2;;;;;;;5.51;70.60059;960.753;;;;
2020/02/19 06:06:00;;;;;;;3.5;1.2;;;;;;;5.53;70.80859;960.7034;;;;
2020/02/19 06:08:18;;;;;;;3.7;1.3;;;;;;;5.46;70.12695;960.7534;;;;
2020/02/19 06:10:43;;;;;;;3.8;1.4;;;;;;;5.47;69.05762;960.6033;;;;
2020/02/19 06:13:08;;;;;;;2.8;1;;;;;;;5.46;69.99023;960.6461;;;;
2020/02/19 06:15:33;;;;;;;3.4;1.2;;;;;;;5.57;70.20313;960.6369;;;;
2020/02/19 06:17:58;;;;;;;2.9;1;;;;;;;5.45;69.76172;960.6166;;;;
2020/02/19 06:20:23;;;;;;;4.4;1.3;;;;;;;5.4;70.59473;960.6208;;;;
2020/02/19 06:22:49;;;;;;;3.2;1.3;;;;;;;5.35;70.58594;960.6552;;;;
2020/02/19 06:25:14;;;;;;;5.6;1.2;;;;;;;5.37;70.60156;960.6795;;;;
2020/02/19 06:27:39;;;;;;;3.9;1.1;;;;;;;5.44;70.71582;960.597;;;;
2020/02/19 06:30:04;;;;;;;4.4;1.3;;;;;;;5.41;71.25586;960.5591;;;;
2020/02/19 06:32:29;;;;;;;3.9;1.4;;;;;;;5.41;71.19824;960.6139;;;;
2020/02/19 06:34:54;;;;;;;2.8;1;;;;;;;5.39;71.57129;960.5187;;;;
2020/02/19 06:37:19;;;;;;;5.1;1.3;;;;;;;5.4;71.60645;960.6364;;;;
2020/02/19 06:39:44;;;;;;;3.8;1.2;;;;;;;5.46;71.68555;960.5539;;;;
2020/02/19 06:42:09;;;;;;;4;1.3;;;;;;;5.42;71.71387;960.6211;;;;
2020/02/19 06:44:34;;;;;;;4.6;1.8;;;;;;;5.52;71.25195;960.5894;;;;
2020/02/19 06:46:59;;;;;;;6.9;2.6;;;;;;;5.43;71.86133;960.673;;;;
2020/02/19 06:49:24;;;;;;;4.4;1.2;;;;;;;5.46;71.71973;960.6105;;;;
2020/02/19 06:51:49;;;;;;;3.9;1.3;;;;;;;5.47;71.85547;960.7067;;;;
2020/02/19 06:55:36;;;;;;;5;1.4;;;;;;;5.52;71.74121;960.5692;;;;
2020/02/19 06:56:40;;;;;;;4.7;1.4;;;;;;;5.45;71.62695;960.56;;;;
2020/02/19 06:59:05;;;;;;;4.7;1.6;;;;;;;5.57;71.41895;960.5761;;;;
2020/02/19 07:01:30;;;;;;;5.1;1.5;;;;;;;5.52;71.36426;960.5771;;;;
2020/02/19 07:03:55;;;;;;;5.1;1.5;;;;;;;5.6;71.39063;960.6356;;;;
2020/02/19 07:06:20;;;;;;;3.4;1.2;;;;;;;5.62;70.94824;960.6166;;;;
2020/02/19 07:08:45;;;;;;;5.1;1.3;;;;;;;5.56;70.43945;960.6269;;;;
2020/02/19 07:11:10;;;;;;;3.5;1.3;;;;;;;5.6;70.25195;960.515;;;;
2020/02/19 07:13:35;;;;;;;4.6;1.2;;;;;;;5.56;69.8252;960.5864;;;;
2020/02/19 07:16:00;;;;;;;4.7;1.5;;;;;;;5.57;70.04199;960.5115;;;;
2020/02/19 07:18:25;;;;;;;4.8;1.4;;;;;;;5.6;69.51367;960.5669;;;;
2020/02/19 07:20:51;;;;;;;3.5;1.3;;;;;;;5.75;69.29785;960.6049;;;;
2020/02/19 07:23:16;;;;;;;4.6;1.3;;;;;;;5.77;68.7207;960.4688;;;;
2020/02/19 07:25:41;;;;;;;4.1;1.3;;;;;;;5.81;68.7373;960.4059;;;;
2020/02/19 07:28:06;;;;;;;4.3;1.2;;;;;;;5.83;68.5957;960.348;;;;
2020/02/19 07:30:31;;;;;;;3.9;1.3;;;;;;;5.89;68.16016;960.3337;;;;
2020/02/19 07:32:56;;;;;;;3.9;1;;;;;;;5.86;67.84668;960.3323;;;;
2020/02/19 07:35:21;;;;;;;3.9;1.3;;;;;;;5.91;67.71875;960.353;;;;
2020/02/19 07:37:46;;;;;;;4.2;1.3;;;;;;;5.99;67.11523;960.2836;;;;
2020/02/19 07:40:12;;;;;;;4.4;1.3;;;;;;;6.01;67.52832;960.2583;;;;
2020/02/19 07:42:37;;;;;;;3.3;1.2;;;;;;;6.01;67.32617;960.1545;;;;
2020/02/19 07:45:02;;;;;;;6.1;1.3;;;;;;;6.11;67.0791;960.2204;;;;
2020/02/19 07:47:27;;;;;;;3.9;1.2;;;;;;;6.11;66.81543;960.2033;;;;
2020/02/19 07:49:52;;;;;;;3.2;1.1;;;;;;;6.18;66.70215;960.158;;;;
2020/02/19 07:52:17;;;;;;;2.9;1;;;;;;;6.07;66.79883;960.1644;;;;
2020/02/19 07:54:42;;;;;;;3.7;1.4;;;;;;;6.05;67.0127;960.0125;;;;
2020/02/19 07:57:07;;;;;;;3;0.9;;;;;;;6.06;66.58008;960.1487;;;;
2020/02/19 07:59:32;;;;;;;4.1;1.2;;;;;;;6.06;66.91016;960.1674;;;;
2020/02/19 08:01:58;;;;;;;3.3;1.1;;;;;;;5.98;66.62402;960.0527;;;;
2020/02/19 08:04:22;;;;;;;2.4;1;;;;;;;6.06;66.625;960.1454;;;;
2020/02/19 08:06:47;;;;;;;3.7;1;;;;;;;6.13;66.6709;960.2183;;;;
2020/02/19 08:09:13;;;;;;;3.5;1.2;;;;;;;6.23;66.32129;960.0822;;;;
2020/02/19 08:11:38;;;;;;;3.9;1.1;;;;;;;6.26;65.96191;960.0762;;;;
2020/02/19 08:14:03;;;;;;;3.7;1.1;;;;;;;6.26;66.31543;960.0268;;;;
2020/02/19 08:16:28;;;;;;;4.6;1.2;;;;;;;6.28;66.3877;959.9476;;;;
2020/02/19 08:18:53;;;;;;;2.7;1;;;;;;;6.25;66.38281;960.0549;;;;
2020/02/19 08:21:18;;;;;;;3.5;1.2;;;;;;;6.25;66.76953;959.9116;;;;
2020/02/19 08:23:45;;;;;;;2.7;1.1;;;;;;;6.25;67.08789;959.9517;;;;
2020/02/19 08:28:34;;;;;;;2.9;0.9;;;;;;;6.15;68.21289;960.0575;;;;
2020/02/19 08:30:58;;;;;;;3.6;0.9;;;;;;;6.02;69.39844;960.0809;;;;
2020/02/19 08:33:23;;;;;;;2.4;0.9;;;;;;;5.91;70.52051;960.0346;;;;
2020/02/19 08:35:48;;;;;;;2.6;0.9;;;;;;;5.98;70.58789;960.0676;;;;
2020/02/19 08:38:14;;;;;;;2.7;1;;;;;;;6;70.86426;960.1685;;;;
2020/02/19 08:40:39;;;;;;;2.7;1;;;;;;;6;71.21777;960.0494;;;;
2020/02/19 08:43:04;;;;;;;2.4;0.9;;;;;;;5.9;71.92969;960.1174;;;;
2020/02/19 08:45:29;;;;;;;3.7;1.3;;;;;;;6.05;71.94434;960.0999;;;;
2020/02/19 08:47:54;;;;;;;3;1.4;;;;;;;6.05;72.02344;960.2327;;;;
2020/02/19 08:50:19;;;;;;;4.7;1.2;;;;;;;5.93;72.90234;960.1068;;;;
2020/02/19 08:52:44;;;;;;;3.2;1.3;;;;;;;5.97;72.88672;960.0765;;;;
2020/02/19 08:55:09;;;;;;;2.8;1;;;;;;;6.03;72.61133;960.2108;;;;
2020/02/19 08:57:34;;;;;;;3.3;1.2;;;;;;;5.98;73.74219;960.1829;;;;
2020/02/19 08:59:59;;;;;;;2.4;1.5;;;;;;;5.9;74.33203;960.1845;;;;
2020/02/19 09:02:24;;;;;;;3.3;1.3;;;;;;;5.92;74.44922;960.2374;;;;
2020/02/19 09:04:49;;;;;;;2.8;1.2;;;;;;;6.04;74.34375;960.0581;;;;
2020/02/19 09:07:15;;;;;;;2.7;1.4;;;;;;;5.94;74.69238;960.218;;;;
2020/02/19 09:09:40;;;;;;;2.4;1;;;;;;;5.74;75.6123;960.3218;;;;
2020/02/19 09:12:05;;;;;;;3;1.2;;;;;;;5.84;76.37207;960.2238;;;;
2020/02/19 09:14:30;;;;;;;1.6;0.9;;;;;;;5.86;76.13574;960.1848;;;;
2020/02/19 09:16:56;;;;;;;1.9;0.9;;;;;;;5.5;78.07227;960.2175;;;;
2020/02/19 09:19:21;;;;;;;3.3;1.1;;;;;;;5.56;78.50488;960.3602;;;;
2020/02/19 09:21:50;;;;;;;2.6;1.3;;;;;;;5.61;78.76465;960.3133;;;;
2020/02/19 09:26:37;;;;;;;2.2;1.3;;;;;;;5.46;83.58008;960.2823;;;;
2020/02/19 09:29:07;;;;;;;3.6;1.5;;;;;;;5.25;84.4375;960.4525;;;;
2020/02/19 09:31:27;;;;;;;2.9;1.6;;;;;;;4.94;87.31934;960.3616;;;;
2020/02/19 09:33:53;;;;;;;3;1.6;;;;;;;5.07;88.96973;960.3935;;;;
2020/02/19 09:36:18;;;;;;;2;1;;;;;;;4.84;89.65039;960.3015;;;;
2020/02/19 09:38:44;;;;;;;2.5;1.3;;;;;;;4.9;90.43359;960.3596;;;;
2020/02/19 09:41:09;;;;;;;1.5;0.8;;;;;;;5.01;89.9248;960.3909;;;;
2020/02/19 09:43:35;;;;;;;2.4;0.9;;;;;;;4.89;89.99902;960.3123;;;;
2020/02/19 09:45:59;;;;;;;1.5;0.7;;;;;;;4.88;89.33984;960.1886;;;;
2020/02/19 09:48:25;;;;;;;2.7;0.8;;;;;;;5.01;89.48145;960.2698;;;;
2020/02/19 09:50:50;;;;;;;2.6;0.8;;;;;;;4.96;89.25488;960.2594;;;;
2020/02/19 09:53:16;;;;;;;1.3;0.7;;;;;;;4.9;88.37793;960.27;;;;
2020/02/19 09:55:41;;;;;;;2;0.7;;;;;;;4.96;88.90234;960.186;;;;
2020/02/19 09:58:07;;;;;;;1.7;0.7;;;;;;;5.06;88.84375;960.2322;;;;
2020/02/19 10:00:32;;;;;;;1.1;0.6;;;;;;;4.99;88.82813;960.3317;;;;
2020/02/19 10:02:57;;;;;;;0.9;0.5;;;;;;;5;88.16211;960.3577;;;;
2020/02/19 10:05:22;;;;;;;1.1;0.7;;;;;;;5.02;87.70898;960.4486;;;;
2020/02/19 10:07:47;;;;;;;1.4;0.7;;;;;;;5.15;87.38477;960.3758;;;;
2020/02/19 10:10:12;;;;;;;1.5;0.5;;;;;;;5.18;87.33301;960.5086;;;;
2020/02/19 10:12:37;;;;;;;1;0.6;;;;;;;5.29;85.59277;960.5112;;;;
2020/02/19 10:15:02;;;;;;;0.8;0.5;;;;;;;5.39;86.35352;960.5099;;;;
2020/02/19 10:17:27;;;;;;;1.6;0.6;;;;;;;5.42;86.22266;960.5167;;;;
2020/02/19 10:19:52;;;;;;;1.1;0.6;;;;;;;5.48;85.66699;960.5588;;;;
2020/02/19 10:22:17;;;;;;;1.1;0.5;;;;;;;5.43;85.33789;960.6373;;;;
2020/02/19 10:24:43;;;;;;;2.2;1.1;;;;;;;5.64;84.86816;960.6605;;;;
2020/02/19 10:27:09;;;;;;;1.5;0.9;;;;;;;5.63;85.25391;960.7693;;;;
2020/02/19 10:29:33;;;;;;;1.7;0.6;;;;;;;5.56;87.33203;960.7242;;;;
2020/02/19 10:31:58;;;;;;;1.6;0.5;;;;;;;5.54;87.875;960.8287;;;;
2020/02/19 10:34:23;;;;;;;1.6;0.9;;;;;;;5.36;89.99609;960.6888;;;;
2020/02/19 10:36:48;;;;;;;0.9;0.6;;;;;;;5.65;89.41992;960.7042;;;;
2020/02/19 10:39:13;;;;;;;1.9;0.6;;;;;;;5.39;89.51465;960.7427;;;;
2020/02/19 10:41:38;;;;;;;1.9;0.7;;;;;;;5.21;90.30957;960.7233;;;;
2020/02/19 10:44:04;;;;;;;1.4;0.7;;;;;;;4.99;91.68164;960.7672;;;;
2020/02/19 10:46:29;;;;;;;1.3;0.7;;;;;;;4.84;93.12402;960.6799;;;;
2020/02/19 10:48:54;;;;;;;1.5;1.2;;;;;;;5.02;92.49219;960.7166;;;;
2020/02/19 10:51:19;;;;;;;1;0.7;;;;;;;5.22;92.17285;960.6532;;;;
2020/02/19 10:53:44;;;;;;;1.2;0.9;;;;;;;5.39;91.1748;960.6699;;;;
2020/02/19 10:56:09;;;;;;;1.4;0.9;;;;;;;5.26;90.20508;960.6855;;;;
2020/02/19 10:58:34;;;;;;;0.8;0.5;;;;;;;5.24;87.99609;960.6978;;;;
2020/02/19 11:00:59;;;;;;;1.9;0.6;;;;;;;5.33;88.67188;960.7766;;;;
2020/02/19 11:03:26;;;;;;;0.8;0.5;;;;;;;5.39;86.84277;960.8436;;;;
2020/02/19 11:05:50;;;;;;;0.7;0.5;;;;;;;5.55;86.2041;960.905;;;;
2020/02/19 11:08:17;;;;;;;1.6;0.7;;;;;;;5.63;85.57227;960.8695;;;;
2020/02/19 11:10:40;;;;;;;2.3;0.7;;;;;;;5.96;84.22461;960.8398;;;;
2020/02/19 11:13:05;;;;;;;1.4;0.7;;;;;;;6.01;82.23145;960.8101;;;;
2020/02/19 11:15:30;;;;;;;1.1;0.6;;;;;;;6.07;81.44531;960.7614;;;;
2020/02/19 11:17:55;;;;;;;2.1;1;;;;;;;6.04;80.41602;960.7274;;;;
2020/02/19 11:20:20;;;;;;;3.6;1.6;;;;;;;6.28;79.24219;960.683;;;;
2020/02/19 11:22:45;;;;;;;0.8;0.5;;;;;;;6.41;78.14844;960.6537;;;;
2020/02/19 11:25:10;;;;;;;1.8;0.7;;;;;;;6.55;78.60547;960.6124;;;;
2020/02/19 11:27:36;;;;;;;2.1;0.8;;;;;;;6.6;76.93945;960.5666;;;;
2020/02/19 11:30:00;;;;;;;1;0.6;;;;;;;6.74;74.72949;960.6179;;;;
2020/02/19 11:32:25;;;;;;;0.6;0.5;;;;;;;6.74;73.75781;960.6939;;;;
2020/02/19 11:34:51;;;;;;;0.8;0.4;;;;;;;6.73;73.97461;960.7054;;;;
2020/02/19 11:37:16;;;;;;;1.2;0.6;;;;;;;6.65;74.85059;960.8428;;;;
2020/02/19 11:39:41;;;;;;;1;0.6;;;;;;;6.44;78.16602;960.8726;;;;
2020/02/19 11:42:06;;;;;;;2.8;0.8;;;;;;;6.27;80.83594;960.9034;;;;
2020/02/19 11:44:31;;;;;;;2.5;0.8;;;;;;;6.05;81.76172;960.9939;;;;
2020/02/19 11:46:56;;;;;;;2.1;0.9;;;;;;;6.01;81.05957;961.0976;;;;
2020/02/19 11:49:21;;;;;;;1;0.7;;;;;;;5.96;81.12793;961.0427;;;;
2020/02/19 11:51:46;;;;;;;1.6;0.7;;;;;;;6.05;79.2666;961.1206;;;;
2020/02/19 11:54:11;;;;;;;1.1;0.6;;;;;;;6.05;80.29199;961.1304;;;;
2020/02/19 11:56:37;;;;;;;2.4;0.5;;;;;;;5.81;80.58984;961.1912;;;;
2020/02/19 11:59:02;;;;;;;0.6;0.4;;;;;;;5.85;78.47754;961.3987;;;;
2020/02/19 12:01:27;;;;;;;0.5;0.4;;;;;;;5.65;80.5127;961.3684;;;;
2020/02/19 12:03:52;;;;;;;1.9;0.5;;;;;;;5.3;79.29785;961.4241;;;;
2020/02/19 12:06:17;;;;;;;1.2;0.5;;;;;;;4.86;85.91602;961.4074;;;;
2020/02/19 12:08:42;;;;;;;1.5;0.7;;;;;;;4.66;89.07715;961.4882;;;;
2020/02/19 12:11:07;;;;;;;1.4;0.9;;;;;;;4.86;90.40332;961.4101;;;;
2020/02/19 12:13:33;;;;;;;2.8;0.9;;;;;;;5.09;89.43066;961.3766;;;;
2020/02/19 12:15:58;;;;;;;3;1.4;;;;;;;5.53;87.71387;961.4689;;;;
2020/02/19 12:18:28;;;;;;;3.4;1.6;;;;;;;5.65;86.54297;961.3777;;;;
2020/02/19 12:20:48;;;;;;;1.4;0.9;;;;;;;5.95;86.05566;961.4749;;;;
2020/02/19 12:23:14;;;;;;;1.3;0.8;;;;;;;5.68;82.22461;961.5648;;;;
2020/02/19 12:25:39;;;;;;;1.5;0.7;;;;;;;5.23;86.10547;961.7312;;;;
2020/02/19 12:28:05;;;;;;;2.8;1.3;;;;;;;4.84;91.05859;961.8845;;;;
2020/02/19 12:35:26;;;;;;;2.1;1;;;;;;;4.35;88.5957;961.8915;;;;
2020/02/19 12:37:45;;;;;;;2.9;1.3;;;;;;;4.35;89.7168;962.0714;;;;
2020/02/19 12:40:11;;;;;;;2.3;0.6;;;;;;;3.94;89.7207;962.0815;;;;
2020/02/19 12:42:36;;;;;;;2.2;0.9;;;;;;;3.85;91.87793;962.1627;;;;
2020/02/19 12:45:01;;;;;;;3;0.7;;;;;;;3.61;91.9834;962.2917;;;;
2020/02/19 12:47:26;;;;;;;2.3;1;;;;;;;3.65;93.23926;962.327;;;;
2020/02/19 12:49:51;;;;;;;1.2;1;;;;;;;3.67;94.17188;962.3505;;;;
2020/02/19 12:52:17;;;;;;;1.4;0.8;;;;;;;3.68;93.69824;962.3521;;;;
2020/02/19 12:54:42;;;;;;;2.3;1.1;;;;;;;3.82;93.89746;962.3594;;;;
2020/02/19 12:57:07;;;;;;;4;1.4;;;;;;;3.85;93.34082;962.4448;;;;
2020/02/19 12:59:32;;;;;;;2.3;0.7;;;;;;;3.94;91.74902;962.4702;;;;
2020/02/19 13:01:57;;;;;;;2.1;0.8;;;;;;;3.99;91.87402;962.525;;;;
2020/02/19 13:04:22;;;;;;;2.3;0.9;;;;;;;4.2;91.26074;962.4794;;;;
2020/02/19 13:06:48;;;;;;;1.7;0.9;;;;;;;4.35;90.34082;962.5941;;;;
2020/02/19 13:09:13;;;;;;;2.5;0.9;;;;;;;4.68;89.47852;962.6118;;;;
2020/02/19 13:11:38;;;;;;;2.5;1.3;;;;;;;4.93;89.82813;962.6379;;;;
2020/02/19 13:14:04;;;;;;;1.8;1;;;;;;;4.91;87.8457;962.6467;;;;
2020/02/19 13:16:29;;;;;;;1.9;0.8;;;;;;;5.18;87.0166;962.6387;;;;
2020/02/19 13:18:54;;;;;;;2.4;0.8;;;;;;;5.44;87.00195;962.7098;;;;
2020/02/19 13:21:20;;;;;;;2.4;1.4;;;;;;;5.7;85.84766;962.7049;;;;
2020/02/19 13:23:45;;;;;;;2.8;0.9;;;;;;;5.66;84.21191;962.7751;;;;
2020/02/19 13:26:10;;;;;;;3.1;0.9;;;;;;;5.52;84.32031;962.7786;;;;
2020/02/19 13:28:36;;;;;;;1.9;1;;;;;;;5.32;86.30664;962.8491;;;;
2020/02/19 13:31:01;;;;;;;2;1.3;;;;;;;5.33;82.55469;962.9048;;;;
2020/02/19 13:33:42;;;;;;;1.5;0.8;;;;;;;5.39;84.25;962.8911;;;;
2020/02/19 13:35:59;;;;;;;1.9;0.7;;;;;;;5.35;83.57227;962.9519;;;;
2020/02/19 13:38:16;;;;;;;2.1;0.9;;;;;;;5.57;83.07031;962.9291;;;;
2020/02/19 13:40:41;;;;;;;1.3;0.7;;;;;;;5.68;83.17969;962.9568;;;;
2020/02/19 13:43:07;;;;;;;1.9;0.7;;;;;;;5.42;82.84473;963.0887;;;;
2020/02/19 13:45:33;;;;;;;1.3;0.7;;;;;;;5.65;82.39941;962.9645;;;;
2020/02/19 13:47:58;;;;;;;0.9;0.5;;;;;;;5.45;82.85254;963.0159;;;;
2020/02/19 13:52:13;;;;;;;2.4;0.8;;;;;;;5.61;84.15723;963.177;;;;
2020/02/19 13:54:38;;;;;;;1.5;0.8;;;;;;;5.66;85.24707;963.236;;;;
2020/02/19 13:57:03;;;;;;;2.7;1;;;;;;;5.37;85.80469;963.1649;;;;
2020/02/19 13:59:28;;;;;;;2;1;;;;;;;5.41;84.57227;963.136;;;;
2020/02/19 14:01:53;;;;;;;1.9;1;;;;;;;5.38;83.41797;963.1314;;;;
2020/02/19 14:04:18;;;;;;;2.6;1;;;;;;;5.34;80.06836;963.2211;;;;
2020/02/19 14:06:43;;;;;;;2.3;1;;;;;;;5.35;79.7959;963.3013;;;;
2020/02/19 14:09:08;;;;;;;1.5;0.9;;;;;;;5.29;78.83984;963.3485;;;;
2020/02/19 14:11:34;;;;;;;2.3;1;;;;;;;5.19;79.60742;963.4953;;;;
2020/02/19 14:13:59;;;;;;;2.3;0.9;;;;;;;4.98;77.68359;963.5302;;;;
2020/02/19 14:16:24;;;;;;;1.9;0.7;;;;;;;4.67;78.68262;963.3484;;;;
2020/02/19 14:18:49;;;;;;;1.9;0.8;;;;;;;4.64;78.3916;963.3211;;;;
2020/02/19 14:21:14;;;;;;;2;0.7;;;;;;;4.79;78.3291;963.3058;;;;
2020/02/19 14:23:39;;;;;;;2.1;0.7;;;;;;;4.95;78.43848;963.3883;;;;
2020/02/19 14:26:04;;;;;;;1.2;0.7;;;;;;;4.94;74.47168;963.4315;;;;
2020/02/19 14:28:29;;;;;;;2.5;0.9;;;;;;;5.03;75.75977;963.4928;;;;
2020/02/19 14:30:54;;;;;;;2;0.9;;;;;;;5.21;73.98633;963.5506;;;;
2020/02/19 14:33:20;;;;;;;2.3;0.9;;;;;;;5.24;76.30859;963.6197;;;;
2020/02/19 14:38:10;;;;;;;1.6;0.7;;;;;;;5.21;76.36035;963.6467;;;;
2020/02/19 14:40:35;;;;;;;2.5;0.8;;;;;;;5.34;76.71387;963.7147;;;;
2020/02/19 14:43:00;;;;;;;2.1;0.8;;;;;;;5.35;77.30566;963.7206;;;;
2020/02/19 14:45:25;;;;;;;2.5;0.9;;;;;;;5.42;77.05664;963.8161;;;;
2020/02/19 14:47:50;;;;;;;2.3;0.7;;;;;;;5.33;76.19922;963.8437;;;;
2020/02/19 14:50:15;;;;;;;2.9;0.8;;;;;;;5.3;78.00195;963.7954;;;;
2020/02/19 14:52:40;;;;;;;2.7;0.9;;;;;;;5.33;77.98438;963.8178;;;;